This is the latest recevied weather packets stored in our database for station/object KK4KTV-13. If no packets are shown the sender has not sent any weather packets the latest 10 day(s).
| Time | Temp. | Humidity | Pressure | Rain* | Wind** | Luminosity | Snow |
|---|---|---|---|---|---|---|---|
| 1777741464 | 13.89° C | 51% | 1016.2 hPa | 0 mm | - | 381 W/m² | - |
| 1777741160 | 13.33° C | 52% | 1016.3 hPa | 0 mm | - | 368 W/m² | - |
| 1777740857 | 12.78° C | 53% | 1016.3 hPa | 0 mm | - | 261 W/m² | - |
| 1777740554 | 12.78° C | 54% | 1016.5 hPa | 0 mm | - | 165 W/m² | - |
| 1777740251 | 12.78° C | 52% | 1016.7 hPa | 0 mm | - | 119 W/m² | - |
| 1777739947 | 13.33° C | 52% | 1016.5 hPa | 0 mm | - | 100 W/m² | - |
| 1777739643 | 13.89° C | 52% | 1016.5 hPa | 0 mm | - | 163 W/m² | - |
| 1777739341 | 14.44° C | 50% | 1016.4 hPa | 0 mm | - | 295 W/m² | - |
| 1777739037 | 13.89° C | 51% | 1016.5 hPa | 0 mm | - | 808 W/m² | - |
| 1777738735 | 13.89° C | 49% | 1016.5 hPa | 0 mm | - | 922 W/m² | - |
| 1777738431 | 15° C | 50% | 1016.5 hPa | 0 mm | - | 266 W/m² | - |
| 1777738129 | 14.44° C | 50% | 1016.5 hPa | 0 mm | - | 594 W/m² | - |
| 1777737827 | 15° C | 50% | 1016.3 hPa | 0 mm | - | 435 W/m² | - |
| 1777737526 | 15° C | 51% | 1016.3 hPa | 0 mm | - | 916 W/m² | - |
| 1777737223 | 13.33° C | 54% | 1016.5 hPa | 0 mm | - | 769 W/m² | - |
| 1777736919 | 13.33° C | 53% | 1016.4 hPa | 0 mm | - | 212 W/m² | - |
| 1777736310 | 14.44° C | 51% | 1016.4 hPa | 0 mm | - | 781 W/m² | - |
| 1777736007 | 13.89° C | 50% | 1016.6 hPa | 0 mm | - | 787 W/m² | - |
| 1777735705 | 13.89° C | 52% | 1016.4 hPa | 0 mm | - | 713 W/m² | - |
| 1777735402 | 13.33° C | 53% | 1016.6 hPa | 0 mm | - | 689 W/m² | - |
| 1777735100 | 13.33° C | 53% | 1016.6 hPa | 0 mm | - | 672 W/m² | - |
| 1777734796 | 13.33° C | 53% | 1016.5 hPa | 0 mm | - | 222 W/m² | - |
| 1777734494 | 13.33° C | 55% | 1016.5 hPa | 0 mm | - | 638 W/m² | - |
| 1777734190 | 13.33° C | 54% | 1016.5 hPa | 0 mm | - | 595 W/m² | - |
| 1777733886 | 13.33° C | 57% | 1016.6 hPa | 0 mm | - | 614 W/m² | - |
* Rain latest hour (hover to see other rain measurements)
** Current wind speed in m/s (hover to see current wind gust speed)